Time;durP1;ratioP1;P1;durP2;ratioP2;P2;SDS_P1;SDS_P2;PMS_P1;PMS_P2;Temp;Humidity;BMP_temperature;BMP_pressure;BME280_temperature;BME280_humidity;BME280_pressure;Samples;Min_cycle;Max_cycle;Signal;HPM_P1;HPM_P2
2023/08/25 00:00:43;;;;;;;3.22;1.88;;;;;;;23.89;84.98;100118.38;4992624;28;20656;-61
2023/08/25 00:03:09;;;;;;;3.17;1.88;;;;;;;23.82;84.63;100115.94;5001490;28;20152;-62
2023/08/25 00:05:38;;;;;;;2.38;1.98;;;;;;;23.90;84.57;100119.16;5009932;28;20547;-62
2023/08/25 00:08:05;;;;;;;3.25;1.70;;;;;;;23.89;84.55;100123.13;4999617;28;20472;-62
2023/08/25 00:10:30;;;;;;;4.65;1.80;;;;;;;23.84;85.27;100118.25;4998404;28;20037;-62
2023/08/25 00:12:56;;;;;;;3.28;2.05;;;;;;;23.96;84.43;100120.06;4995460;28;20034;-62
2023/08/25 00:15:21;;;;;;;3.78;1.88;;;;;;;24.00;84.20;100117.94;5003181;28;20582;-63
2023/08/25 00:17:47;;;;;;;3.15;2.20;;;;;;;23.97;84.56;100118.84;5009189;28;20030;-62
2023/08/25 00:20:13;;;;;;;7.38;2.22;;;;;;;23.92;85.04;100113.97;5006329;28;20413;-61
2023/08/25 00:22:39;;;;;;;3.38;2.00;;;;;;;23.81;85.88;100100.66;5007025;28;20060;-61
2023/08/25 00:25:05;;;;;;;3.15;2.30;;;;;;;23.74;85.98;100103.72;5009161;28;20492;-62
2023/08/25 00:27:30;;;;;;;2.60;2.17;;;;;;;23.80;86.18;100114.88;5030726;28;20582;-62
2023/08/25 00:29:56;;;;;;;3.17;1.75;;;;;;;23.91;85.60;100109.66;5032018;28;20112;-62
2023/08/25 00:32:21;;;;;;;3.53;2.03;;;;;;;24.00;85.40;100112.44;5031629;28;20404;-62
2023/08/25 00:34:47;;;;;;;3.75;2.10;;;;;;;24.01;85.43;100111.97;5021481;28;20030;-62
2023/08/25 00:37:12;;;;;;;5.60;2.22;;;;;;;24.08;85.29;100119.16;5029968;28;20029;-62
2023/08/25 00:39:39;;;;;;;3.90;2.60;;;;;;;23.98;85.27;100112.88;5046826;28;20551;-63
2023/08/25 00:42:05;;;;;;;2.80;2.17;;;;;;;24.00;85.86;100109.69;5029364;28;20044;-62
2023/08/25 00:44:30;;;;;;;3.25;2.33;;;;;;;24.05;85.45;100111.84;5025948;28;20033;-62
2023/08/25 00:46:56;;;;;;;2.72;2.10;;;;;;;24.02;85.63;100118.28;5046078;28;20068;-62
2023/08/25 00:49:23;;;;;;;5.05;2.25;;;;;;;24.06;85.81;100105.13;5031475;28;20032;-62
2023/08/25 00:51:53;;;;;;;4.03;2.70;;;;;;;24.06;85.65;100103.13;5026335;28;20403;-62
2023/08/25 00:54:25;;;;;;;3.42;2.25;;;;;;;24.01;86.17;100102.94;5029656;28;20034;-62
2023/08/25 00:56:51;;;;;;;3.33;2.03;;;;;;;24.00;86.44;100104.19;5030855;28;20541;-62
2023/08/25 00:59:17;;;;;;;3.60;2.60;;;;;;;24.05;86.75;100100.84;5030574;28;20017;-62
2023/08/25 01:01:45;;;;;;;5.40;2.80;;;;;;;24.13;85.92;100099.31;5025104;28;20033;-61
2023/08/25 01:04:12;;;;;;;4.93;2.72;;;;;;;24.18;85.65;100093.16;5028096;28;20029;-62
2023/08/25 01:06:39;;;;;;;3.53;2.50;;;;;;;24.05;86.26;100081.56;5030734;28;20033;-62
2023/08/25 01:09:06;;;;;;;3.60;2.50;;;;;;;23.96;86.77;100085.06;5027075;28;20044;-61
2023/08/25 01:11:48;;;;;;;3.70;2.47;;;;;;;24.00;86.94;100080.16;5022825;28;20033;-63
2023/08/25 01:14:35;;;;;;;3.65;2.50;;;;;;;23.94;87.22;100078.50;5028336;28;20053;-63
2023/08/25 01:17:28;;;;;;;3.47;2.42;;;;;;;23.95;87.18;100080.78;5026408;28;20408;-61
2023/08/25 01:19:58;;;;;;;3.40;2.53;;;;;;;23.99;87.17;100075.13;5039162;28;20168;-62
2023/08/25 01:22:48;;;;;;;3.33;2.20;;;;;;;23.97;87.11;100069.31;5022703;28;20038;-63
2023/08/25 01:25:22;;;;;;;5.20;2.20;;;;;;;23.95;87.79;100074.50;5037678;28;20060;-62
2023/08/25 01:27:50;;;;;;;4.03;2.50;;;;;;;24.00;87.29;100069.16;5044378;28;20041;-63
2023/08/25 01:30:15;;;;;;;5.90;2.80;;;;;;;24.00;87.08;100071.91;5026261;28;20034;-62
2023/08/25 01:32:41;;;;;;;5.43;2.83;;;;;;;23.90;87.47;100069.63;5025911;28;20040;-63
2023/08/25 01:35:07;;;;;;;9.48;3.00;;;;;;;23.93;87.78;100071.44;5028484;28;20128;-63
2023/08/25 01:37:41;;;;;;;5.00;2.78;;;;;;;23.93;87.80;100074.97;5029293;28;20029;-63
2023/08/25 01:40:14;;;;;;;5.00;2.92;;;;;;;23.97;87.67;100072.84;5029065;28;20034;-63
2023/08/25 01:42:45;;;;;;;4.38;2.80;;;;;;;23.96;87.73;100070.56;5024106;28;20041;-62
2023/08/25 01:45:11;;;;;;;4.85;2.70;;;;;;;23.95;87.59;100086.28;5029732;28;20037;-63
2023/08/25 01:47:40;;;;;;;2.95;2.35;;;;;;;23.93;88.23;100085.22;5024491;28;20034;-62
2023/08/25 01:50:09;;;;;;;2.88;2.28;;;;;;;23.93;88.24;100082.47;5028927;28;20029;-63
2023/08/25 01:52:34;;;;;;;3.40;2.40;;;;;;;23.92;88.19;100075.44;5043793;28;20080;-63
2023/08/25 01:55:01;;;;;;;4.35;2.47;;;;;;;23.86;88.22;100066.28;5028024;28;20049;-63
2023/08/25 01:57:27;;;;;;;3.47;2.55;;;;;;;23.82;88.53;100079.41;5025558;28;20029;-62
2023/08/25 01:59:53;;;;;;;4.07;2.58;;;;;;;23.85;88.61;100086.75;5028095;28;20030;-63
2023/08/25 02:02:18;;;;;;;4.35;2.78;;;;;;;23.85;88.38;100086.75;5027133;28;20038;-62
2023/08/25 02:04:44;;;;;;;6.43;2.55;;;;;;;23.82;88.67;100093.16;5030146;28;20543;-63
2023/08/25 02:07:10;;;;;;;2.67;1.90;;;;;;;23.85;88.43;100089.50;5025712;28;20044;-63
2023/08/25 02:09:37;;;;;;;4.78;3.00;;;;;;;23.77;88.81;100080.03;5038048;28;20025;-62
2023/08/25 02:12:03;;;;;;;3.30;2.90;;;;;;;23.76;88.97;100076.50;5027309;28;20033;-63
2023/08/25 02:14:28;;;;;;;3.78;2.45;;;;;;;23.77;88.71;100078.03;5026009;28;20040;-61
2023/08/25 02:16:54;;;;;;;5.05;3.00;;;;;;;23.75;88.77;100074.22;5027998;28;20024;-62
2023/08/25 02:19:20;;;;;;;4.25;2.78;;;;;;;23.70;88.67;100070.09;5042491;28;20029;-63
2023/08/25 02:21:46;;;;;;;4.75;2.53;;;;;;;23.68;89.08;100077.28;5027872;28;20501;-62
2023/08/25 02:24:11;;;;;;;3.50;2.38;;;;;;;23.62;89.35;100066.13;5020072;28;20133;-62
2023/08/25 02:26:37;;;;;;;6.45;3.00;;;;;;;23.56;89.70;100070.69;5043754;28;20108;-62
2023/08/25 02:29:03;;;;;;;5.03;2.97;;;;;;;23.59;89.35;100069.03;5029909;28;20086;-63
2023/08/25 02:31:28;;;;;;;3.80;2.42;;;;;;;23.59;89.28;100069.78;5028013;28;20040;-63
2023/08/25 02:33:54;;;;;;;3.40;2.33;;;;;;;23.53;89.79;100070.84;5016935;28;20029;-63
2023/08/25 02:36:19;;;;;;;4.00;3.08;;;;;;;23.53;89.80;100071.63;5024733;28;20029;-63
2023/08/25 02:38:45;;;;;;;8.52;2.88;;;;;;;23.51;89.86;100070.53;5027481;28;20487;-63
2023/08/25 02:41:11;;;;;;;4.50;2.65;;;;;;;23.44;90.24;100073.59;5029605;28;20691;-63
2023/08/25 02:43:37;;;;;;;7.78;2.78;;;;;;;23.44;90.04;100066.09;5027620;28;20038;-61
2023/08/25 02:46:02;;;;;;;2.88;2.53;;;;;;;23.40;90.28;100061.97;5028067;28;20036;-63
2023/08/25 02:48:28;;;;;;;4.10;2.75;;;;;;;23.37;90.58;100052.66;5018652;28;20033;-62
2023/08/25 02:50:53;;;;;;;7.53;2.33;;;;;;;23.30;90.96;100056.44;5024658;28;20030;-62
2023/08/25 02:53:18;;;;;;;5.97;2.83;;;;;;;23.28;90.62;100055.38;5025486;28;20041;-63
2023/08/25 02:55:46;;;;;;;5.35;3.22;;;;;;;23.24;91.31;100044.53;5019765;28;20087;-62
2023/08/25 02:58:11;;;;;;;8.43;2.60;;;;;;;23.23;91.09;100047.72;5023050;28;20033;-63
2023/08/25 03:00:38;;;;;;;5.65;2.83;;;;;;;23.22;91.18;100046.19;5027805;28;20040;-62
2023/08/25 03:03:03;;;;;;;3.47;2.35;;;;;;;23.16;91.46;100037.78;5027409;28;20037;-63
2023/08/25 03:05:29;;;;;;;4.68;2.65;;;;;;;23.16;91.21;100032.28;5024196;28;20114;-62
2023/08/25 03:07:54;;;;;;;4.13;2.60;;;;;;;23.15;91.51;100044.50;5027462;28;20032;-62
2023/08/25 03:10:21;;;;;;;6.85;3.00;;;;;;;23.13;91.23;100037.94;5026766;28;20029;-62
2023/08/25 03:12:46;;;;;;;3.20;2.22;;;;;;;23.10;91.57;100033.34;5025037;28;20095;-62
2023/08/25 03:15:12;;;;;;;6.63;2.72;;;;;;;23.06;91.94;100033.50;5022967;28;20034;-62
2023/08/25 03:17:37;;;;;;;6.22;2.90;;;;;;;23.08;91.85;100039.28;5028320;28;20053;-62
2023/08/25 03:20:04;;;;;;;3.38;2.55;;;;;;;23.07;91.81;100028.75;5024784;28;20083;-60
2023/08/25 03:22:30;;;;;;;4.28;2.42;;;;;;;23.04;91.79;100032.41;5021284;28;20117;-60
2023/08/25 03:24:57;;;;;;;4.78;2.40;;;;;;;23.08;91.12;100025.56;5026584;28;20783;-62
2023/08/25 03:27:22;;;;;;;3.55;2.45;;;;;;;23.07;91.81;100026.75;5022502;28;20075;-62
2023/08/25 03:29:48;;;;;;;6.13;2.90;;;;;;;22.99;91.80;100024.78;5030615;28;21577;-62
2023/08/25 03:32:14;;;;;;;5.72;3.00;;;;;;;22.88;92.39;100027.94;5020475;28;20029;-63
2023/08/25 03:34:39;;;;;;;3.58;2.30;;;;;;;22.92;92.09;100017.56;5033083;28;20117;-61
2023/08/25 03:37:05;;;;;;;4.10;2.60;;;;;;;22.85;92.78;100017.09;5035175;28;20057;-62
2023/08/25 03:39:32;;;;;;;4.03;2.65;;;;;;;22.85;92.76;100028.84;5025496;28;20018;-61
2023/08/25 03:41:58;;;;;;;5.45;3.13;;;;;;;22.96;92.20;100028.41;5023777;28;20088;-62
2023/08/25 03:44:23;;;;;;;5.65;2.83;;;;;;;22.87;92.87;100026.41;5021624;28;20053;-61
2023/08/25 03:46:49;;;;;;;5.07;2.88;;;;;;;22.93;92.19;100030.09;5009948;28;20029;-62
2023/08/25 03:49:14;;;;;;;5.95;3.40;;;;;;;22.92;92.34;100028.56;5024953;28;20038;-61
2023/08/25 03:51:41;;;;;;;4.22;2.70;;;;;;;22.89;92.61;100024.00;5025953;28;20057;-63
2023/08/25 03:54:07;;;;;;;3.80;2.80;;;;;;;22.93;92.16;100024.63;5026537;28;20076;-62
2023/08/25 03:56:32;;;;;;;3.58;2.55;;;;;;;22.91;92.15;100031.78;5036513;28;20026;-62
2023/08/25 03:58:58;;;;;;;3.58;2.72;;;;;;;22.91;92.01;100035.28;5014590;28;20397;-61
2023/08/25 04:01:23;;;;;;;4.95;3.08;;;;;;;22.90;92.30;100030.25;5027784;28;20033;-62
2023/08/25 04:03:49;;;;;;;5.63;3.03;;;;;;;22.87;92.07;100034.66;5015365;28;20037;-62
2023/08/25 04:06:14;;;;;;;4.38;2.47;;;;;;;22.84;91.96;100023.81;5020245;28;20040;-62
2023/08/25 04:08:40;;;;;;;5.38;2.70;;;;;;;22.75;91.76;100018.28;5025176;28;20026;-62
2023/08/25 04:11:06;;;;;;;3.30;2.47;;;;;;;22.63;92.68;100019.91;5030426;28;20444;-62
2023/08/25 04:13:33;;;;;;;4.82;3.00;;;;;;;22.59;92.61;100013.06;5014241;28;20044;-62
2023/08/25 04:16:01;;;;;;;6.68;3.20;;;;;;;22.51;92.49;100026.28;5023275;28;20029;-62
2023/08/25 04:18:50;;;;;;;3.88;2.35;;;;;;;22.47;93.23;100014.66;5024695;28;20034;-63
2023/08/25 04:21:15;;;;;;;3.97;2.70;;;;;;;22.43;93.33;100014.78;4923448;29;20039;-62
2023/08/25 04:23:42;;;;;;;5.15;3.03;;;;;;;22.40;93.56;100023.91;4933251;28;20039;-63
2023/08/25 04:26:07;;;;;;;5.50;2.63;;;;;;;22.33;93.93;100015.19;4949450;28;20155;-63
2023/08/25 04:28:33;;;;;;;5.13;2.90;;;;;;;22.35;94.06;100018.25;4930903;29;20522;-63
2023/08/25 04:30:58;;;;;;;4.18;2.45;;;;;;;22.37;93.95;100026.81;4930654;29;20027;-63
2023/08/25 04:33:29;;;;;;;7.05;2.85;;;;;;;22.38;94.24;100020.88;4930700;28;20768;-63
2023/08/25 04:35:55;;;;;;;5.25;2.65;;;;;;;22.37;94.12;100018.56;4946600;28;20043;-63
2023/08/25 04:38:21;;;;;;;5.68;2.65;;;;;;;22.35;94.19;100023.75;4933407;28;20031;-61
2023/08/25 04:40:49;;;;;;;5.55;3.10;;;;;;;22.36;94.26;100028.00;4930805;29;20027;-62
2023/08/25 04:43:16;;;;;;;4.93;2.95;;;;;;;22.42;94.10;100024.25;4917211;29;20170;-63
2023/08/25 04:45:42;;;;;;;5.85;3.17;;;;;;;22.43;94.08;100022.25;4933642;29;20490;-63
2023/08/25 04:48:08;;;;;;;4.57;3.08;;;;;;;22.40;94.09;100026.66;4928478;29;20046;-62
2023/08/25 04:50:36;;;;;;;4.55;2.97;;;;;;;22.41;94.50;100030.19;4935061;29;20034;-63
2023/08/25 04:53:02;;;;;;;6.47;3.55;;;;;;;22.39;94.25;100036.13;4950322;29;20039;-62
2023/08/25 04:55:28;;;;;;;3.97;2.45;;;;;;;22.43;94.53;100025.75;4933383;29;20082;-61
2023/08/25 04:57:55;;;;;;;10.65;3.00;;;;;;;22.41;95.26;100030.19;4959975;28;20049;-62
2023/08/25 05:00:21;;;;;;;6.35;3.40;;;;;;;22.48;95.21;100029.91;5017024;28;20018;-62
2023/08/25 05:02:48;;;;;;;4.78;2.58;;;;;;;22.46;94.87;100029.59;5025567;28;20037;-62
2023/08/25 05:05:17;;;;;;;4.30;2.65;;;;;;;22.48;95.07;100021.66;5026422;28;20112;-63
2023/08/25 05:07:43;;;;;;;5.97;3.30;;;;;;;22.52;95.54;100036.03;5030238;28;20029;-63
2023/08/25 05:10:10;;;;;;;6.25;3.35;;;;;;;22.57;95.27;100024.47;5023770;28;20022;-62
2023/08/25 05:12:39;;;;;;;5.97;3.65;;;;;;;22.59;95.46;100021.28;5038519;28;20025;-63
2023/08/25 05:15:07;;;;;;;4.85;2.92;;;;;;;22.60;95.11;100029.06;5029938;28;20120;-64
2023/08/25 05:17:33;;;;;;;6.35;3.08;;;;;;;22.59;95.66;100033.03;5017373;28;20041;-62
2023/08/25 05:19:58;;;;;;;6.15;3.45;;;;;;;22.70;95.56;100043.59;5036867;28;20029;-62
2023/08/25 05:22:24;;;;;;;6.95;3.75;;;;;;;22.76;94.87;100034.34;5028236;28;20145;-62
2023/08/25 05:24:52;;;;;;;6.53;3.35;;;;;;;22.81;95.16;100039.22;5022754;28;20030;-63
2023/08/25 05:27:17;;;;;;;5.55;3.10;;;;;;;22.86;95.47;100035.88;5034493;28;20139;-63
2023/08/25 05:29:44;;;;;;;5.25;3.47;;;;;;;22.90;95.31;100036.50;5019201;28;20393;-62
2023/08/25 05:32:19;;;;;;;4.85;2.58;;;;;;;22.95;95.81;100038.66;5021554;28;20454;-62
2023/08/25 05:35:08;;;;;;;7.85;3.22;;;;;;;22.98;95.48;100035.00;5023443;28;20056;-64
2023/08/25 05:37:35;;;;;;;5.57;3.22;;;;;;;23.04;95.40;100041.41;5010019;28;20057;-63
2023/08/25 05:40:00;;;;;;;5.95;2.92;;;;;;;23.05;95.61;100047.69;5019400;28;20425;-62
2023/08/25 05:42:31;;;;;;;5.90;3.28;;;;;;;23.05;95.65;100042.19;5020956;28;20512;-62
2023/08/25 05:44:57;;;;;;;6.88;3.58;;;;;;;23.08;95.52;100031.06;5008447;28;20745;-62
2023/08/25 05:47:23;;;;;;;7.22;3.72;;;;;;;23.11;95.27;100029.38;5017166;28;20033;-62
2023/08/25 05:49:49;;;;;;;8.00;4.22;;;;;;;23.15;95.25;100030.75;5021528;28;20087;-62
2023/08/25 05:52:14;;;;;;;7.57;4.22;;;;;;;23.20;95.17;100035.66;4990968;28;20499;-63
2023/08/25 05:54:41;;;;;;;7.65;4.07;;;;;;;23.28;94.65;100045.16;5026702;28;20125;-63
2023/08/25 05:57:08;;;;;;;10.05;4.25;;;;;;;23.28;94.59;100036.91;5029663;28;20906;-63
2023/08/25 05:59:33;;;;;;;10.25;5.25;;;;;;;23.32;94.92;100028.53;5025994;28;20104;-63
2023/08/25 06:01:59;;;;;;;5.85;3.90;;;;;;;23.34;94.86;100036.31;5027672;28;20116;-62
2023/08/25 06:04:26;;;;;;;7.40;3.83;;;;;;;23.38;94.73;100031.44;5015364;28;20045;-62
2023/08/25 06:06:51;;;;;;;8.48;4.05;;;;;;;23.46;94.73;100036.16;5022171;28;20051;-62
2023/08/25 06:09:17;;;;;;;11.43;5.28;;;;;;;23.53;94.43;100032.34;5017940;28;20025;-62
2023/08/25 06:11:44;;;;;;;8.50;3.92;;;;;;;23.57;94.24;100038.47;5023856;28;20033;-62
2023/08/25 06:14:10;;;;;;;12.80;4.50;;;;;;;23.64;94.57;100035.41;5023601;28;20128;-62
2023/08/25 06:16:39;;;;;;;9.82;4.75;;;;;;;23.75;94.43;100044.72;5021206;28;20148;-63
2023/08/25 06:19:05;;;;;;;10.25;4.82;;;;;;;23.80;93.87;100043.34;5020784;28;20037;-62
2023/08/25 06:21:31;;;;;;;10.52;4.97;;;;;;;23.88;93.57;100037.09;5014369;28;20038;-62
2023/08/25 06:23:56;;;;;;;9.52;4.07;;;;;;;24.04;92.99;100053.28;5013404;28;20036;-63
2023/08/25 06:26:22;;;;;;;10.57;5.18;;;;;;;24.14;92.48;100030.03;5027345;28;20036;-62
2023/08/25 06:28:49;;;;;;;12.40;5.32;;;;;;;24.23;91.88;100043.00;5027379;28;20100;-62
2023/08/25 06:31:35;;;;;;;8.98;4.55;;;;;;;24.27;91.63;100046.38;5026298;28;20033;-62
2023/08/25 06:34:04;;;;;;;10.38;5.07;;;;;;;24.31;91.32;100046.19;5001604;28;20144;-62
2023/08/25 06:36:32;;;;;;;11.18;5.40;;;;;;;24.32;90.88;100047.72;4997178;28;20115;-62
2023/08/25 06:38:58;;;;;;;9.77;4.47;;;;;;;24.36;90.88;100051.06;4994682;28;20109;-61
2023/08/25 06:41:24;;;;;;;11.35;5.93;;;;;;;24.41;90.44;100055.97;4999320;28;20169;-62
2023/08/25 06:43:51;;;;;;;9.07;5.10;;;;;;;24.36;90.53;100043.59;4997296;28;20045;-62
2023/08/25 06:46:36;;;;;;;12.63;4.60;;;;;;;24.35;90.35;100047.53;4993450;28;20041;-62
2023/08/25 06:49:02;;;;;;;10.43;5.65;;;;;;;24.32;90.69;100056.75;4940204;28;20134;-62
2023/08/25 06:51:27;;;;;;;13.05;5.55;;;;;;;24.34;90.53;100064.53;4945070;28;20138;-63
2023/08/25 06:53:53;;;;;;;11.20;5.75;;;;;;;24.31;90.44;100057.97;4936665;28;20178;-62
2023/08/25 06:56:18;;;;;;;12.98;5.90;;;;;;;24.34;90.37;100056.28;4948650;28;20478;-62
2023/08/25 06:58:44;;;;;;;10.52;5.57;;;;;;;24.35;90.24;100049.56;4946106;29;20031;-62
2023/08/25 07:01:10;;;;;;;17.02;6.47;;;;;;;24.33;90.48;100061.00;4925228;29;20047;-62
2023/08/25 07:03:36;;;;;;;16.63;6.25;;;;;;;24.40;90.18;100057.94;4940110;29;20118;-62
2023/08/25 07:06:01;;;;;;;15.85;6.68;;;;;;;24.42;90.17;100057.47;4942832;29;20097;-62
2023/08/25 07:08:27;;;;;;;15.50;6.57;;;;;;;24.43;89.93;100051.50;4943784;29;20043;-62
2023/08/25 07:10:52;;;;;;;12.40;6.40;;;;;;;24.45;89.95;100053.81;4951713;28;20039;-61
2023/08/25 07:13:18;;;;;;;15.75;6.15;;;;;;;24.53;89.70;100055.00;4976049;28;20496;-62
2023/08/25 07:15:43;;;;;;;14.77;6.00;;;;;;;24.58;89.21;100048.88;4971050;28;20074;-62
2023/08/25 07:18:09;;;;;;;14.40;5.43;;;;;;;24.57;89.05;100058.34;4975144;28;20074;-60
2023/08/25 07:20:34;;;;;;;14.60;6.40;;;;;;;24.59;89.24;100064.16;4975048;28;20046;-62
2023/08/25 07:23:00;;;;;;;12.77;6.28;;;;;;;24.64;88.51;100061.53;4981635;28;20053;-63
2023/08/25 07:25:25;;;;;;;11.40;5.80;;;;;;;24.58;88.66;100065.41;4990249;28;20052;-63
2023/08/25 07:27:51;;;;;;;10.82;5.68;;;;;;;24.66;88.16;100070.09;5024288;28;20488;-63
2023/08/25 07:30:17;;;;;;;10.50;5.55;;;;;;;24.62;88.25;100072.25;5021232;28;20026;-63
2023/08/25 07:32:42;;;;;;;15.05;6.78;;;;;;;24.66;88.36;100080.38;5026554;28;20104;-62
2023/08/25 07:35:08;;;;;;;12.30;5.60;;;;;;;24.67;88.24;100079.91;5030386;28;20164;-62
2023/08/25 07:37:34;;;;;;;14.27;6.13;;;;;;;24.66;88.18;100083.13;5028329;28;20034;-61
2023/08/25 07:40:00;;;;;;;10.07;5.68;;;;;;;24.62;87.69;100080.50;5025868;28;20036;-61
2023/08/25 07:42:26;;;;;;;16.85;7.15;;;;;;;24.59;87.95;100075.16;5025875;28;20033;-61
2023/08/25 07:44:52;;;;;;;14.00;7.18;;;;;;;24.51;87.80;100063.72;5018667;28;20065;-61
2023/08/25 07:47:18;;;;;;;10.50;5.72;;;;;;;24.50;88.35;100077.97;5026486;28;20553;-62
2023/08/25 07:49:43;;;;;;;13.90;7.10;;;;;;;24.51;88.26;100079.47;5030388;28;20136;-60
2023/08/25 07:52:09;;;;;;;12.80;6.28;;;;;;;24.52;88.44;100075.50;5030196;28;20025;-59
2023/08/25 07:54:34;;;;;;;11.85;6.25;;;;;;;24.48;88.37;100078.44;5019263;28;20033;-60
2023/08/25 07:57:00;;;;;;;13.60;6.78;;;;;;;24.48;88.48;100089.44;5024952;28;20036;-61
2023/08/25 07:59:25;;;;;;;13.95;6.00;;;;;;;24.46;88.37;100085.63;5030463;28;20033;-61
2023/08/25 08:01:51;;;;;;;12.65;6.03;;;;;;;24.47;88.67;100087.13;5020189;28;20037;-62
2023/08/25 08:04:17;;;;;;;12.43;5.28;;;;;;;24.49;88.46;100088.22;5028886;28;20052;-61
2023/08/25 08:06:42;;;;;;;9.18;5.07;;;;;;;24.48;88.56;100094.97;5023148;28;20034;-63
2023/08/25 08:09:08;;;;;;;9.93;5.20;;;;;;;24.50;88.11;100098.00;5023697;28;20037;-63
2023/08/25 08:11:34;;;;;;;14.05;5.47;;;;;;;24.52;87.81;100090.06;5024658;28;20033;-63
2023/08/25 08:14:00;;;;;;;11.05;5.07;;;;;;;24.53;87.75;100093.53;5025473;28;20478;-63
2023/08/25 08:16:26;;;;;;;9.18;5.03;;;;;;;24.51;87.84;100096.78;5027629;28;20033;-62
2023/08/25 08:18:52;;;;;;;8.80;5.05;;;;;;;24.49;88.23;100084.69;5023969;28;20021;-62
2023/08/25 08:21:18;;;;;;;10.85;4.65;;;;;;;24.47;88.26;100087.13;5028284;28;20527;-62
2023/08/25 08:23:43;;;;;;;13.70;5.63;;;;;;;24.48;88.21;100094.19;5015345;28;20053;-62
2023/08/25 08:26:09;;;;;;;11.35;5.30;;;;;;;24.48;88.10;100089.44;5034883;28;20037;-61
2023/08/25 08:28:34;;;;;;;12.50;5.80;;;;;;;24.50;87.87;100089.75;5018094;28;20482;-62
2023/08/25 08:31:05;;;;;;;11.70;4.95;;;;;;;24.52;87.85;100098.31;5025179;28;20041;-62
2023/08/25 08:33:33;;;;;;;13.48;5.72;;;;;;;24.54;87.04;100093.09;5018821;28;20037;-63
2023/08/25 08:36:00;;;;;;;12.32;5.60;;;;;;;24.46;87.17;100097.41;5030340;28;20435;-63
2023/08/25 08:38:26;;;;;;;14.18;5.25;;;;;;;24.42;87.89;100105.06;5024883;28;20037;-62
2023/08/25 08:40:52;;;;;;;15.43;5.60;;;;;;;24.46;88.14;100102.91;5028036;28;20025;-63
2023/08/25 08:43:18;;;;;;;10.95;5.63;;;;;;;24.52;88.10;100106.56;5029390;28;20091;-61
2023/08/25 08:45:51;;;;;;;20.17;8.00;;;;;;;24.58;87.93;100107.47;5021538;28;20040;-62
2023/08/25 08:48:21;;;;;;;16.33;7.07;;;;;;;24.65;87.96;100104.38;5029329;28;20033;-62
2023/08/25 08:50:48;;;;;;;16.92;6.97;;;;;;;24.77;87.87;100100.72;5033015;28;20057;-64
2023/08/25 08:53:14;;;;;;;13.05;5.57;;;;;;;24.90;87.99;100103.25;5024764;28;20026;-63
2023/08/25 08:55:42;;;;;;;10.88;5.45;;;;;;;25.07;87.69;100101.63;5026825;28;20026;-61
2023/08/25 08:58:07;;;;;;;12.50;5.43;;;;;;;25.32;87.29;100108.72;5031657;28;20067;-62
2023/08/25 09:00:35;;;;;;;14.25;4.50;;;;;;;25.59;85.07;100117.59;5012423;28;20021;-63
2023/08/25 09:03:08;;;;;;;9.30;3.97;;;;;;;25.66;83.63;100102.69;5020098;28;20412;-62
2023/08/25 09:05:57;;;;;;;8.00;4.53;;;;;;;25.76;82.56;100112.44;5028841;28;20025;-63
2023/08/25 09:08:24;;;;;;;8.38;3.58;;;;;;;25.78;82.18;100101.69;4967615;28;20513;-62
2023/08/25 09:10:49;;;;;;;14.38;4.13;;;;;;;25.88;82.01;100120.44;4963643;28;20066;-63
2023/08/25 09:13:15;;;;;;;9.52;4.18;;;;;;;25.90;81.11;100115.22;4966389;28;20099;-61
2023/08/25 09:15:40;;;;;;;9.55;3.63;;;;;;;25.98;80.51;100126.66;4965909;28;20043;-63
2023/08/25 09:18:07;;;;;;;8.30;3.80;;;;;;;25.96;80.21;100128.38;4966290;28;20062;-63
2023/08/25 09:20:35;;;;;;;8.23;3.67;;;;;;;25.92;80.10;100136.81;4962301;28;20101;-61
2023/08/25 09:23:02;;;;;;;8.77;4.05;;;;;;;25.70;80.26;100130.88;4964300;28;20043;-61
2023/08/25 09:25:28;;;;;;;8.20;3.78;;;;;;;25.68;80.33;100136.88;4937173;28;20046;-61
2023/08/25 09:27:57;;;;;;;11.52;4.32;;;;;;;25.68;80.78;100141.59;4963054;28;20201;-62
2023/08/25 09:30:36;;;;;;;8.60;4.25;;;;;;;25.59;81.78;100133.41;4964323;28;20201;-63
2023/08/25 09:33:03;;;;;;;7.50;3.92;;;;;;;25.63;82.25;100147.75;4965377;28;20058;-61
2023/08/25 09:35:29;;;;;;;6.22;3.42;;;;;;;25.62;81.56;100144.25;4968358;28;20090;-62
2023/08/25 09:37:55;;;;;;;6.57;3.03;;;;;;;25.62;81.36;100135.22;4959331;28;20121;-62
2023/08/25 09:40:20;;;;;;;6.22;3.42;;;;;;;25.61;81.57;100136.47;4966941;28;20554;-62
2023/08/25 09:42:46;;;;;;;8.48;3.00;;;;;;;25.63;81.42;100145.00;4968589;28;20026;-62
2023/08/25 09:45:12;;;;;;;8.32;3.35;;;;;;;25.61;81.72;100145.47;4990462;28;20136;-62
2023/08/25 09:47:38;;;;;;;5.80;2.92;;;;;;;25.59;81.85;100149.97;5027612;28;20044;-63
2023/08/25 09:50:04;;;;;;;7.65;3.70;;;;;;;25.61;81.79;100155.78;5028568;28;20021;-62
2023/08/25 09:52:33;;;;;;;6.20;3.33;;;;;;;25.56;82.28;100137.09;5010932;28;20045;-62
2023/08/25 09:54:59;;;;;;;7.97;2.88;;;;;;;25.55;82.25;100146.59;5026143;28;20090;-61
2023/08/25 09:57:25;;;;;;;8.23;3.58;;;;;;;25.56;82.35;100148.88;5020489;28;20021;-62
2023/08/25 09:59:51;;;;;;;7.20;3.47;;;;;;;25.58;82.64;100153.94;5016888;28;20021;-62
2023/08/25 10:02:18;;;;;;;6.07;3.35;;;;;;;25.55;82.69;100157.63;5014311;28;20098;-63
2023/08/25 10:04:43;;;;;;;8.35;4.00;;;;;;;25.65;82.16;100165.38;5014348;28;20024;-63
2023/08/25 10:07:10;;;;;;;8.25;4.03;;;;;;;25.69;80.91;100154.16;5024950;28;20476;-62
2023/08/25 10:09:35;;;;;;;5.22;3.20;;;;;;;25.75;80.58;100155.03;5026265;28;20032;-62
2023/08/25 10:12:04;;;;;;;6.88;3.88;;;;;;;25.80;80.89;100170.97;5013408;28;20034;-61
2023/08/25 10:14:32;;;;;;;4.85;3.38;;;;;;;25.79;81.27;100172.19;5025443;28;20060;-63
2023/08/25 10:17:01;;;;;;;8.55;4.03;;;;;;;25.81;81.16;100169.72;5020437;28;20044;-62
2023/08/25 10:19:28;;;;;;;9.05;3.70;;;;;;;25.76;80.73;100164.88;5021141;28;20507;-61
2023/08/25 10:21:55;;;;;;;7.57;3.65;;;;;;;25.78;81.25;100159.63;5013025;28;20050;-62
2023/08/25 10:24:22;;;;;;;6.63;3.72;;;;;;;25.75;81.15;100166.06;5025606;28;20033;-61
2023/08/25 10:26:49;;;;;;;8.15;3.40;;;;;;;25.72;81.75;100170.56;5028528;28;20036;-61
2023/08/25 10:29:20;;;;;;;5.07;3.33;;;;;;;25.74;82.08;100164.56;5024318;28;20185;-62
2023/08/25 10:31:51;;;;;;;11.52;3.17;;;;;;;25.72;82.38;100161.50;5023391;28;20091;-61
2023/08/25 10:34:32;;;;;;;10.95;3.83;;;;;;;25.80;81.99;100171.72;5026531;28;20037;-61
2023/08/25 10:37:22;;;;;;;12.77;3.75;;;;;;;25.79;81.56;100166.66;5027452;28;20506;-61
2023/08/25 10:39:48;;;;;;;7.35;4.30;;;;;;;25.77;82.12;100158.09;5026028;28;20408;-60
2023/08/25 10:42:18;;;;;;;5.90;3.42;;;;;;;25.81;81.44;100159.44;5021686;28;20052;-61
2023/08/25 10:45:04;;;;;;;4.85;3.03;;;;;;;25.82;81.23;100162.97;5023394;28;20788;-62
2023/08/25 10:47:30;;;;;;;6.28;3.65;;;;;;;25.75;81.60;100161.31;4996978;28;20527;-61
2023/08/25 10:50:03;;;;;;;6.45;3.08;;;;;;;25.69;81.77;100171.47;5005317;28;20116;-61
2023/08/25 10:52:29;;;;;;;6.88;3.17;;;;;;;25.66;82.52;100189.00;4995342;28;20042;-61
2023/08/25 10:54:55;;;;;;;6.47;2.83;;;;;;;25.70;81.82;100184.06;5003537;28;20476;-61
2023/08/25 10:57:26;;;;;;;6.18;2.63;;;;;;;25.64;81.64;100172.16;4993421;28;20130;-61
2023/08/25 11:00:28;;;;;;;6.03;2.97;;;;;;;25.69;80.80;100157.69;4988477;28;20038;-61
2023/08/25 11:02:55;;;;;;;7.13;2.65;;;;;;;25.61;80.82;100158.53;4988935;28;20118;-62
2023/08/25 11:05:28;;;;;;;5.40;3.10;;;;;;;25.58;81.96;100162.22;4995520;28;20262;-61
2023/08/25 11:07:54;;;;;;;7.25;3.35;;;;;;;25.41;82.33;100164.63;4993471;28;20037;-61
2023/08/25 11:10:24;;;;;;;7.72;3.15;;;;;;;25.59;81.73;100169.28;4999842;28;20037;-62
2023/08/25 11:12:53;;;;;;;5.60;2.70;;;;;;;25.61;82.11;100169.56;5006378;28;20117;-62
2023/08/25 11:15:22;;;;;;;5.63;3.05;;;;;;;25.75;81.72;100171.59;5007197;28;20038;-62
2023/08/25 11:17:50;;;;;;;7.25;3.25;;;;;;;25.75;82.05;100174.34;4988283;28;20125;-61
2023/08/25 11:20:16;;;;;;;6.15;3.15;;;;;;;25.68;82.07;100171.97;5003493;28;20025;-62
2023/08/25 11:22:51;;;;;;;6.70;3.45;;;;;;;25.67;82.07;100176.72;5006869;28;20104;-62
2023/08/25 11:25:18;;;;;;;7.28;3.22;;;;;;;25.56;82.76;100181.22;5028233;28;20053;-62